createdAt,value
2022-08-20T00:00:31.074Z,4.72
2022-08-20T00:03:01.338Z,4.70
2022-08-20T00:05:33.038Z,4.85
2022-08-20T00:08:00.955Z,4.28
2022-08-20T00:10:29.635Z,4.70
2022-08-20T00:12:57.015Z,4.47
2022-08-20T00:15:31.455Z,4.43
2022-08-20T00:17:59.426Z,3.47
2022-08-20T00:20:30.291Z,4.22
2022-08-20T00:22:58.157Z,5.28
2022-08-20T00:25:27.211Z,4.45
2022-08-20T00:27:55.099Z,5.00
2022-08-20T00:30:23.643Z,4.40
2022-08-20T00:32:59.765Z,4.45
2022-08-20T00:35:29.832Z,4.70
2022-08-20T00:38:00.478Z,4.88
2022-08-20T00:40:38.892Z,4.95
2022-08-20T00:43:23.448Z,5.07
2022-08-20T00:45:51.117Z,4.60
2022-08-20T00:48:18.550Z,5.30
2022-08-20T00:50:45.591Z,4.78
2022-08-20T00:53:12.743Z,4.97
2022-08-20T00:55:39.869Z,4.88
2022-08-20T00:58:09.590Z,4.43
2022-08-20T01:00:44.835Z,4.68
2022-08-20T01:03:14.983Z,4.70
2022-08-20T01:05:48.529Z,4.93
2022-08-20T01:08:18.441Z,5.47
2022-08-20T01:10:48.854Z,5.55
2022-08-20T01:13:23.763Z,5.93
2022-08-20T01:15:54.694Z,5.20
2022-08-20T01:18:27.775Z,4.65
2022-08-20T01:21:00.520Z,4.43
2022-08-20T01:23:51.801Z,3.95
2022-08-20T01:26:23.414Z,5.22
2022-08-20T01:28:55.380Z,4.43
2022-08-20T01:31:29.116Z,4.55
2022-08-20T01:36:31.590Z,5.15
2022-08-20T01:39:00.556Z,4.20
2022-08-20T01:41:36.491Z,4.57
2022-08-20T01:44:03.757Z,4.47
2022-08-20T01:46:36.758Z,4.90
2022-08-20T01:49:13.570Z,4.15
2022-08-20T01:51:42.399Z,4.40
2022-08-20T01:54:09.798Z,4.88
2022-08-20T01:56:56.050Z,4.50
2022-08-20T01:59:23.865Z,4.78
2022-08-20T02:01:51.602Z,4.45
2022-08-20T02:04:19.839Z,4.35
2022-08-20T02:06:57.217Z,4.85
2022-08-20T02:09:27.320Z,4.20
2022-08-20T02:11:54.834Z,4.40
2022-08-20T02:14:22.008Z,4.90
2022-08-20T02:16:55.298Z,5.00
2022-08-20T02:19:27.540Z,4.85
2022-08-20T02:21:58.150Z,4.85
2022-08-20T02:24:25.288Z,4.15
2022-08-20T02:26:52.884Z,4.85
2022-08-20T02:29:19.973Z,4.68
2022-08-20T02:32:32.047Z,4.72
2022-08-20T02:34:35.162Z,4.72
2022-08-20T02:37:03.861Z,4.65
2022-08-20T02:39:30.967Z,4.65
2022-08-20T02:41:57.950Z,5.50
2022-08-20T02:44:24.999Z,5.05
2022-08-20T02:46:51.966Z,4.80
2022-08-20T02:49:20.139Z,4.90
2022-08-20T02:51:47.271Z,4.53
2022-08-20T02:54:14.643Z,4.80
2022-08-20T02:56:42.135Z,5.03
2022-08-20T02:59:09.084Z,4.47
2022-08-20T03:01:39.635Z,4.13
2022-08-20T03:04:06.760Z,3.90
2022-08-20T03:06:33.765Z,4.72
2022-08-20T03:09:00.893Z,4.63
2022-08-20T03:11:27.957Z,4.55
2022-08-20T03:13:55.387Z,5.10
2022-08-20T03:16:24.344Z,4.43
2022-08-20T03:18:52.115Z,5.10
2022-08-20T03:21:19.392Z,5.07
2022-08-20T03:23:46.286Z,4.18
2022-08-20T03:26:13.752Z,4.78
2022-08-20T03:28:41.907Z,4.15
2022-08-20T03:31:09.326Z,4.00
2022-08-20T03:33:36.359Z,4.93
2022-08-20T03:36:07.847Z,4.50
2022-08-20T03:38:35.087Z,3.67
2022-08-20T03:41:03.034Z,5.72
2022-08-20T03:43:30.814Z,4.95
2022-08-20T03:45:57.827Z,4.93
2022-08-20T03:48:26.140Z,4.20
2022-08-20T03:50:53.150Z,4.18
2022-08-20T03:53:20.134Z,4.43
2022-08-20T03:55:53.941Z,4.28
2022-08-20T03:58:34.812Z,3.63
2022-08-20T04:01:04.259Z,3.78
2022-08-20T04:03:31.247Z,3.70
2022-08-20T04:05:58.885Z,3.33
2022-08-20T04:08:29.467Z,4.20
2022-08-20T04:10:57.783Z,4.50
2022-08-20T04:13:26.319Z,4.45
2022-08-20T04:15:57.264Z,4.18
2022-08-20T04:18:26.155Z,3.60
2022-08-20T04:20:54.199Z,3.80
2022-08-20T04:23:22.103Z,3.58
2022-08-20T04:25:49.790Z,4.20
2022-08-20T04:28:29.101Z,4.18
2022-08-20T04:30:58.794Z,3.67
2022-08-20T04:33:33.963Z,4.07
2022-08-20T04:36:06.220Z,3.83
2022-08-20T04:38:49.830Z,4.28
2022-08-20T04:41:24.031Z,5.05
2022-08-20T04:43:54.259Z,3.90
2022-08-20T04:46:25.561Z,3.70
2022-08-20T04:48:53.356Z,4.20
2022-08-20T04:51:23.316Z,3.83
2022-08-20T04:53:53.554Z,3.67
2022-08-20T04:56:34.793Z,3.60
2022-08-20T04:59:02.215Z,4.25
2022-08-20T05:01:29.820Z,4.30
2022-08-20T05:03:58.274Z,4.28
2022-08-20T05:06:31.630Z,3.97
2022-08-20T05:09:00.020Z,3.97
2022-08-20T05:11:35.692Z,3.97
2022-08-20T05:14:09.345Z,3.83
2022-08-20T05:16:38.585Z,4.23
2022-08-20T05:19:10.689Z,4.20
2022-08-20T05:21:38.855Z,3.50
2022-08-20T05:24:07.122Z,4.05
2022-08-20T05:26:34.302Z,4.25
2022-08-20T05:29:02.135Z,3.83
2022-08-20T05:31:32.066Z,4.13
2022-08-20T05:34:02.987Z,3.83
2022-08-20T05:36:30.234Z,4.05
2022-08-20T05:38:57.208Z,3.97
2022-08-20T05:41:28.740Z,3.17
2022-08-20T05:44:02.860Z,3.80
2022-08-20T05:46:31.921Z,3.17
2022-08-20T05:49:01.752Z,3.88
2022-08-20T05:51:30.109Z,3.30
2022-08-20T05:53:59.092Z,4.18
2022-08-20T05:56:27.053Z,3.38
2022-08-20T05:58:54.415Z,3.17
2022-08-20T06:01:22.077Z,3.50
2022-08-20T06:04:07.847Z,3.47
2022-08-20T06:06:44.487Z,3.03
2022-08-20T06:09:12.599Z,2.67
2022-08-20T06:11:39.562Z,2.70
2022-08-20T06:14:06.589Z,3.15
2022-08-20T06:16:34.187Z,3.00
2022-08-20T06:19:04.595Z,2.65
2022-08-20T06:21:31.522Z,2.58
2022-08-20T06:24:00.878Z,2.28
2022-08-20T06:26:29.898Z,2.70
2022-08-20T06:28:59.731Z,2.80
2022-08-20T06:31:27.566Z,2.40
2022-08-20T06:33:55.154Z,2.75
2022-08-20T06:36:22.235Z,2.72
2022-08-20T06:38:49.366Z,2.22
2022-08-20T06:41:17.332Z,2.58
2022-08-20T06:43:44.284Z,2.38
2022-08-20T06:46:11.326Z,2.70
2022-08-20T06:48:38.356Z,3.00
2022-08-20T06:51:06.812Z,2.03
2022-08-20T06:53:33.929Z,2.60
2022-08-20T06:56:01.174Z,2.83
2022-08-20T06:58:37.965Z,2.80
2022-08-20T07:01:11.192Z,3.00
2022-08-20T07:03:54.642Z,2.85
2022-08-20T07:06:25.692Z,2.05
2022-08-20T07:08:56.537Z,2.42
2022-08-20T07:11:28.057Z,2.88
2022-08-20T07:13:57.126Z,2.47
2022-08-20T07:16:24.591Z,2.13
2022-08-20T07:18:51.606Z,2.13
2022-08-20T07:21:18.886Z,2.42
2022-08-20T07:23:45.898Z,2.13
2022-08-20T07:26:13.328Z,2.67
2022-08-20T07:28:40.435Z,2.60
2022-08-20T07:31:26.003Z,2.30
2022-08-20T07:33:54.111Z,2.45
2022-08-20T07:36:21.032Z,2.72
2022-08-20T07:38:51.128Z,2.28
2022-08-20T07:41:21.071Z,2.35
2022-08-20T07:43:49.256Z,2.15
2022-08-20T07:46:20.883Z,2.30
2022-08-20T07:48:50.948Z,2.17
2022-08-20T07:51:21.349Z,2.08
2022-08-20T07:53:49.312Z,1.85
2022-08-20T07:56:22.553Z,1.70
2022-08-20T07:58:55.604Z,2.35
2022-08-20T08:01:26.118Z,2.05
2022-08-20T08:03:53.591Z,1.85
2022-08-20T08:06:29.503Z,2.20
2022-08-20T08:09:18.342Z,1.75
2022-08-20T08:11:51.828Z,1.70
2022-08-20T08:14:23.654Z,2.38
2022-08-20T08:16:52.923Z,1.85
2022-08-20T08:19:20.327Z,2.20
2022-08-20T08:21:47.396Z,1.98
2022-08-20T08:24:19.960Z,1.50
2022-08-20T08:26:50.216Z,2.00
2022-08-20T08:29:17.723Z,1.88
2022-08-20T08:31:44.974Z,1.55
2022-08-20T08:34:13.056Z,1.60
2022-08-20T08:36:48.151Z,1.77
2022-08-20T08:39:23.139Z,1.23
2022-08-20T08:41:52.447Z,1.95
2022-08-20T08:44:39.573Z,1.55
2022-08-20T08:47:25.343Z,1.75
2022-08-20T08:49:52.487Z,1.90
2022-08-20T08:52:27.231Z,1.75
2022-08-20T08:54:58.457Z,1.85
2022-08-20T08:57:26.025Z,1.45
2022-08-20T09:00:21.640Z,1.65
2022-08-20T09:03:02.785Z,1.50
2022-08-20T09:05:43.212Z,1.60
2022-08-20T09:08:16.835Z,1.80
2022-08-20T09:10:45.052Z,2.97
2022-08-20T09:13:12.588Z,3.13
2022-08-20T09:15:39.572Z,1.88
2022-08-20T09:18:06.568Z,1.88
2022-08-20T09:20:34.276Z,1.75
2022-08-20T09:23:01.214Z,1.35
2022-08-20T09:25:28.188Z,1.92
2022-08-20T09:27:55.143Z,2.10
2022-08-20T09:30:22.152Z,1.42
2022-08-20T09:32:54.031Z,1.75
2022-08-20T09:35:21.096Z,1.67
2022-08-20T09:37:50.995Z,1.70
2022-08-20T09:40:21.056Z,1.90
2022-08-20T09:42:49.547Z,1.90
2022-08-20T09:45:16.438Z,2.03
2022-08-20T09:47:51.771Z,1.88
2022-08-20T09:50:25.091Z,1.92
2022-08-20T09:52:53.931Z,1.83
2022-08-20T09:55:28.546Z,2.15
2022-08-20T09:57:55.777Z,1.73
2022-08-20T10:00:22.937Z,2.15
2022-08-20T10:02:49.954Z,2.17
2022-08-20T10:05:17.111Z,2.03
2022-08-20T10:07:44.280Z,2.03
2022-08-20T10:10:14.294Z,2.20
2022-08-20T10:12:41.960Z,2.40
2022-08-20T10:15:09.960Z,2.40
2022-08-20T10:17:42.268Z,2.00
2022-08-20T10:20:12.399Z,2.10
2022-08-20T10:22:39.348Z,2.25
2022-08-20T10:25:07.103Z,1.95
2022-08-20T10:27:34.232Z,1.85
2022-08-20T10:30:01.603Z,2.28
2022-08-20T10:32:28.730Z,2.13
2022-08-20T10:34:55.656Z,1.85
2022-08-20T10:37:24.976Z,1.73
2022-08-20T10:39:52.946Z,1.75
2022-08-20T10:42:20.126Z,2.17
2022-08-20T10:44:47.051Z,1.92
2022-08-20T10:47:26.980Z,1.95
2022-08-20T10:49:55.838Z,1.98
2022-08-20T10:52:24.019Z,1.85
2022-08-20T10:54:51.840Z,1.80
2022-08-20T10:57:22.146Z,1.70
2022-08-20T10:59:51.203Z,2.20
2022-08-20T11:02:19.408Z,2.83
2022-08-20T11:04:46.692Z,2.20
2022-08-20T11:07:18.819Z,1.83
2022-08-20T11:09:48.411Z,2.08
2022-08-20T11:12:17.515Z,1.88
2022-08-20T11:14:44.637Z,2.13
2022-08-20T11:17:12.295Z,1.60
2022-08-20T11:19:44.136Z,2.10
2022-08-20T11:22:11.834Z,1.90
2022-08-20T11:24:38.952Z,1.45
2022-08-20T11:27:08.015Z,2.22
2022-08-20T11:29:36.349Z,2.00
2022-08-20T11:32:04.991Z,2.17
2022-08-20T11:34:34.034Z,2.00
2022-08-20T11:37:01.545Z,2.20
2022-08-20T11:39:28.528Z,1.55
2022-08-20T11:41:55.773Z,1.88
2022-08-20T11:44:22.763Z,1.95
2022-08-20T11:46:50.023Z,2.53
2022-08-20T11:49:17.130Z,1.70
2022-08-20T11:51:49.692Z,1.92
2022-08-20T11:54:17.521Z,2.17
2022-08-20T11:56:45.865Z,1.90
2022-08-20T11:59:13.840Z,2.10
2022-08-20T12:01:40.773Z,1.63
2022-08-20T12:04:13.619Z,1.70
2022-08-20T12:06:40.517Z,1.92
2022-08-20T12:09:07.557Z,1.73
2022-08-20T12:11:34.590Z,1.70
2022-08-20T12:14:01.519Z,2.00
2022-08-20T12:16:28.468Z,1.95
2022-08-20T12:18:55.534Z,1.77
2022-08-20T12:21:22.465Z,1.80
2022-08-20T12:23:49.492Z,2.00
2022-08-20T12:26:16.845Z,1.80
2022-08-20T12:28:43.851Z,2.00
2022-08-20T12:31:10.942Z,1.90
2022-08-20T12:33:38.018Z,1.88
2022-08-20T12:36:05.331Z,1.90
2022-08-20T12:38:32.338Z,1.40
2022-08-20T12:40:59.367Z,1.88
2022-08-20T12:43:26.698Z,1.75
2022-08-20T12:45:53.879Z,2.25
2022-08-20T12:48:21.203Z,1.92
2022-08-20T12:50:50.008Z,1.88
2022-08-20T12:53:17.096Z,1.95
2022-08-20T12:55:44.132Z,2.03
2022-08-20T12:58:11.524Z,1.70
2022-08-20T13:00:48.536Z,1.92
2022-08-20T13:03:19.770Z,1.67
2022-08-20T13:05:47.642Z,1.88
2022-08-20T13:08:14.679Z,2.20
2022-08-20T13:10:45.447Z,1.33
2022-08-20T13:13:20.827Z,1.70
2022-08-20T13:15:50.359Z,2.25
2022-08-20T13:18:17.361Z,1.90
2022-08-20T13:20:44.844Z,2.03
2022-08-20T13:23:11.754Z,1.80
2022-08-20T13:25:38.736Z,2.10
2022-08-20T13:28:06.142Z,2.05
2022-08-20T13:30:36.751Z,1.65
2022-08-20T13:33:04.208Z,1.70
2022-08-20T13:35:31.420Z,2.03
2022-08-20T13:37:58.365Z,1.88
2022-08-20T13:40:25.990Z,1.98
2022-08-20T13:42:52.976Z,1.88
2022-08-20T13:45:19.979Z,2.08
2022-08-20T13:47:47.168Z,2.03
2022-08-20T13:50:18.265Z,2.10
2022-08-20T13:52:46.192Z,1.88
2022-08-20T13:55:17.423Z,1.80
2022-08-20T13:57:46.554Z,1.73
2022-08-20T14:00:31.387Z,2.17
2022-08-20T14:03:00.398Z,2.17
2022-08-20T14:05:27.629Z,2.10
2022-08-20T14:07:54.795Z,1.90
2022-08-20T14:10:26.876Z,2.50
2022-08-20T14:12:53.882Z,2.72
2022-08-20T14:15:20.978Z,2.33
2022-08-20T14:17:53.923Z,2.30
2022-08-20T14:20:25.625Z,2.17
2022-08-20T14:22:57.359Z,2.13
2022-08-20T14:25:25.992Z,2.53
2022-08-20T14:27:54.054Z,1.88
2022-08-20T14:30:24.703Z,2.47
2022-08-20T14:32:52.767Z,2.40
2022-08-20T14:35:20.248Z,1.70
2022-08-20T14:37:55.463Z,2.30
2022-08-20T14:40:24.686Z,1.75
2022-08-20T14:42:52.509Z,2.13
2022-08-20T14:45:20.766Z,2.33
2022-08-20T14:47:54.263Z,2.10
2022-08-20T14:50:26.689Z,2.38
2022-08-20T14:52:54.549Z,2.20
2022-08-20T14:55:24.725Z,2.10
2022-08-20T14:57:52.282Z,2.13
2022-08-20T15:00:23.330Z,2.30
2022-08-20T15:02:50.531Z,2.15
2022-08-20T15:05:17.799Z,1.98
2022-08-20T15:07:48.161Z,1.90
2022-08-20T15:10:24.935Z,2.20
2022-08-20T15:12:52.004Z,2.08
2022-08-20T15:15:19.029Z,1.88
2022-08-20T15:17:57.754Z,1.90
2022-08-20T15:20:28.178Z,2.38
2022-08-20T15:22:55.753Z,2.05
2022-08-20T15:25:25.442Z,1.95
2022-08-20T15:28:00.677Z,2.47
2022-08-20T15:30:30.915Z,2.13
2022-08-20T15:32:58.109Z,1.63
2022-08-20T15:35:26.951Z,2.90
2022-08-20T15:37:57.394Z,1.80
2022-08-20T15:40:28.506Z,1.85
2022-08-20T15:42:57.249Z,2.22
2022-08-20T15:45:24.436Z,1.95
2022-08-20T15:48:07.133Z,1.73
2022-08-20T15:50:38.006Z,1.70
2022-08-20T15:53:11.686Z,2.05
2022-08-20T15:55:47.575Z,2.45
2022-08-20T15:58:24.245Z,2.00
2022-08-20T16:01:15.406Z,2.33
2022-08-20T16:04:40.238Z,1.75
2022-08-20T16:07:15.031Z,1.95
2022-08-20T16:10:21.765Z,1.88
2022-08-20T16:12:52.886Z,1.70
2022-08-20T16:15:32.212Z,2.25
2022-08-20T16:18:02.085Z,2.28
2022-08-20T16:20:35.928Z,1.85
2022-08-20T16:23:04.378Z,1.90
2022-08-20T16:25:58.698Z,1.90
2022-08-20T16:28:36.639Z,1.98
2022-08-20T16:31:08.623Z,2.33
2022-08-20T16:34:33.913Z,1.60
2022-08-20T16:37:25.442Z,1.65
2022-08-20T16:40:11.143Z,1.85
2022-08-20T16:42:43.983Z,2.00
2022-08-20T16:45:19.292Z,1.85
2022-08-20T16:47:47.578Z,2.00
2022-08-20T16:50:25.546Z,2.08
2022-08-20T16:52:52.770Z,2.00
2022-08-20T16:55:21.586Z,1.75
2022-08-20T16:57:48.886Z,1.52
2022-08-20T17:00:26.995Z,1.90
2022-08-20T17:03:01.438Z,1.70
2022-08-20T17:05:49.923Z,2.58
2022-08-20T17:08:29.993Z,1.60
2022-08-20T17:11:13.939Z,1.75
2022-08-20T17:13:46.367Z,1.70
2022-08-20T17:16:13.297Z,1.70
2022-08-20T17:18:48.872Z,1.60
2022-08-20T17:21:38.262Z,2.00
2022-08-20T17:24:30.090Z,1.70
2022-08-20T17:26:59.651Z,2.45
2022-08-20T17:29:47.054Z,1.80
2022-08-20T17:32:22.784Z,2.08
2022-08-20T17:34:53.232Z,1.92
2022-08-20T17:37:29.744Z,1.85
2022-08-20T17:40:17.210Z,1.80
2022-08-20T17:42:53.725Z,1.80
2022-08-20T17:45:28.243Z,1.88
2022-08-20T17:47:59.544Z,2.03
2022-08-20T17:50:35.266Z,2.25
2022-08-20T17:53:23.400Z,1.65
2022-08-20T17:56:01.938Z,1.98
2022-08-20T17:58:54.329Z,1.92
2022-08-20T18:01:23.699Z,2.08
2022-08-20T18:03:52.684Z,1.73
2022-08-20T18:06:32.408Z,1.70
2022-08-20T18:09:23.159Z,1.75
2022-08-20T18:12:00.485Z,1.77
2022-08-20T18:14:30.153Z,2.13
2022-08-20T18:17:16.112Z,1.83
2022-08-20T18:20:24.315Z,1.70
2022-08-20T18:23:06.260Z,1.40
2022-08-20T18:25:45.996Z,1.83
2022-08-20T18:28:44.907Z,1.55
2022-08-20T18:31:26.839Z,1.70
2022-08-20T18:33:54.198Z,1.52
2022-08-20T18:36:21.048Z,1.95
2022-08-20T18:39:08.029Z,1.95
2022-08-20T18:41:38.736Z,2.13
2022-08-20T18:44:12.005Z,1.77
2022-08-20T18:47:01.027Z,2.03
2022-08-20T18:49:37.227Z,1.80
2022-08-20T18:52:22.980Z,1.80
2022-08-20T18:54:53.600Z,1.98
2022-08-20T18:57:27.018Z,1.73
2022-08-20T19:00:05.383Z,1.75
2022-08-20T19:02:34.947Z,1.27
2022-08-20T19:05:10.056Z,1.73
2022-08-20T19:07:48.614Z,1.67
2022-08-20T19:10:33.721Z,1.45
2022-08-20T19:13:27.691Z,1.40
2022-08-20T19:16:04.775Z,1.52
2022-08-20T19:18:51.929Z,1.77
2022-08-20T19:21:42.449Z,1.88
2022-08-20T19:24:11.517Z,1.52
2022-08-20T19:26:45.394Z,1.50
2022-08-20T19:29:22.615Z,1.50
2022-08-20T19:31:49.788Z,1.90
2022-08-20T19:34:24.077Z,1.80
2022-08-20T19:37:35.501Z,1.40
2022-08-20T19:42:43.236Z,1.67
2022-08-20T19:45:19.280Z,1.63
2022-08-20T19:48:12.660Z,1.67
2022-08-20T19:50:51.641Z,2.13
2022-08-20T19:53:30.063Z,1.58
2022-08-20T19:56:12.223Z,2.00
2022-08-20T19:58:39.958Z,1.88
2022-08-20T20:01:17.164Z,2.03
2022-08-20T20:04:05.363Z,1.85
2022-08-20T20:06:36.854Z,1.98
2022-08-20T20:09:26.412Z,2.00
2022-08-20T20:11:59.898Z,1.58
2022-08-20T20:14:33.007Z,1.48
2022-08-20T20:17:01.248Z,1.85
2022-08-20T20:19:28.583Z,1.63
2022-08-20T20:22:18.842Z,1.65
2022-08-20T20:24:58.381Z,1.77
2022-08-20T20:27:27.638Z,1.98
2022-08-20T20:30:08.518Z,1.60
2022-08-20T20:32:40.068Z,1.77
2022-08-20T20:35:07.579Z,2.28
2022-08-20T20:37:50.869Z,1.90
2022-08-20T20:40:45.348Z,2.00
2022-08-20T20:43:23.319Z,1.80
2022-08-20T20:46:07.064Z,2.08
2022-08-20T20:48:48.481Z,1.90
2022-08-20T20:51:30.844Z,1.90
2022-08-20T20:54:02.216Z,1.90
2022-08-20T20:56:41.878Z,2.00
2022-08-20T20:59:10.670Z,1.75
2022-08-20T21:01:48.088Z,1.90
2022-08-20T21:04:18.762Z,1.63
2022-08-20T21:06:46.091Z,1.83
2022-08-20T21:09:13.284Z,1.30
2022-08-20T21:11:40.240Z,1.73
2022-08-20T21:14:07.240Z,1.60
2022-08-20T21:16:34.214Z,1.95
2022-08-20T21:19:04.602Z,1.70
2022-08-20T21:21:32.555Z,1.67
2022-08-20T21:23:59.491Z,1.50
2022-08-20T21:26:28.321Z,1.75
2022-08-20T21:28:55.704Z,1.98
2022-08-20T21:31:26.053Z,1.55
2022-08-20T21:33:53.022Z,1.92
2022-08-20T21:36:19.916Z,1.65
2022-08-20T21:38:46.860Z,1.80
2022-08-20T21:41:14.677Z,2.00
2022-08-20T21:43:42.836Z,2.10
2022-08-20T21:46:12.901Z,2.03
2022-08-20T21:48:40.259Z,1.67
2022-08-20T21:51:07.241Z,1.63
2022-08-20T21:53:34.163Z,1.60
2022-08-20T21:56:01.655Z,1.85
2022-08-20T21:58:28.660Z,2.13
2022-08-20T22:01:01.980Z,1.92
2022-08-20T22:03:36.897Z,1.77
2022-08-20T22:06:07.702Z,2.38
2022-08-20T22:08:35.216Z,1.83
2022-08-20T22:11:02.980Z,1.90
2022-08-20T22:13:33.369Z,2.10
2022-08-20T22:16:02.700Z,2.60
2022-08-20T22:18:29.919Z,1.95
2022-08-20T22:20:57.525Z,2.28
2022-08-20T22:23:24.988Z,2.15
2022-08-20T22:25:52.010Z,1.60
2022-08-20T22:28:20.286Z,1.90
2022-08-20T22:30:47.371Z,1.75
2022-08-20T22:33:19.907Z,1.88
2022-08-20T22:35:50.103Z,1.80
2022-08-20T22:38:17.646Z,1.80
2022-08-20T22:40:45.120Z,1.73
2022-08-20T22:43:12.994Z,1.55
2022-08-20T22:45:41.984Z,1.25
2022-08-20T22:48:09.758Z,1.52
2022-08-20T22:50:37.971Z,1.70
2022-08-20T22:53:07.527Z,1.77
2022-08-20T22:55:35.208Z,1.77
2022-08-20T22:58:03.359Z,1.83
2022-08-20T23:00:32.354Z,1.80
2022-08-20T23:03:01.310Z,1.98
2022-08-20T23:05:31.823Z,2.00
2022-08-20T23:07:59.987Z,1.88
2022-08-20T23:10:28.780Z,2.00
2022-08-20T23:12:57.098Z,1.70
2022-08-20T23:15:26.262Z,2.17
2022-08-20T23:17:56.950Z,2.55
2022-08-20T23:20:24.094Z,2.28
2022-08-20T23:22:51.083Z,2.28
2022-08-20T23:25:21.697Z,2.25
2022-08-20T23:27:52.136Z,2.22
2022-08-20T23:30:21.091Z,1.65
2022-08-20T23:32:48.605Z,2.10
2022-08-20T23:35:16.563Z,1.98
2022-08-20T23:37:48.045Z,2.13
2022-08-20T23:40:17.052Z,2.33
2022-08-20T23:42:44.038Z,1.77
2022-08-20T23:45:11.628Z,1.98
2022-08-20T23:47:38.795Z,2.28
2022-08-20T23:50:07.866Z,1.63
2022-08-20T23:52:34.912Z,1.80
2022-08-20T23:55:01.858Z,1.92
2022-08-20T23:57:28.795Z,1.73
2022-08-20T23:59:56.075Z,1.90
